sensor_id;sensor_type;location;lat;lon;timestamp;pressure;altitude;pressure_sealevel;temperature;humidity
86104;BME280;76727;51.216;17.394;2024-02-21T00:01:14;100383.41;;;4.87;100.00
86104;BME280;76727;51.216;17.394;2024-02-21T00:04:16;100374.69;;;4.93;100.00
86104;BME280;76727;51.216;17.394;2024-02-21T00:07:17;100386.00;;;4.87;100.00
86104;BME280;76727;51.216;17.394;2024-02-21T00:10:19;100372.94;;;5.00;100.00
86104;BME280;76727;51.216;17.394;2024-02-21T00:13:22;100378.16;;;5.00;100.00
86104;BME280;76727;51.216;17.394;2024-02-21T00:16:23;100383.41;;;4.84;100.00
86104;BME280;76727;51.216;17.394;2024-02-21T00:19:25;100379.91;;;4.84;100.00
86104;BME280;76727;51.216;17.394;2024-02-21T00:22:25;100374.66;;;4.87;100.00
86104;BME280;76727;51.216;17.394;2024-02-21T00:25:28;100359.00;;;5.04;100.00
86104;BME280;76727;51.216;17.394;2024-02-21T00:28:31;100369.47;;;4.95;100.00
86104;BME280;76727;51.216;17.394;2024-02-21T00:31:32;100364.22;;;4.87;100.00
86104;BME280;76727;51.216;17.394;2024-02-21T00:34:33;100366.84;;;4.93;100.00
86104;BME280;76727;51.216;17.394;2024-02-21T00:37:34;100365.13;;;4.97;100.00
86104;BME280;76727;51.216;17.394;2024-02-21T00:40:36;100359.88;;;4.92;100.00
86104;BME280;76727;51.216;17.394;2024-02-21T00:43:38;100365.09;;;4.81;100.00
86104;BME280;76727;51.216;17.394;2024-02-21T00:46:40;100361.63;;;4.96;100.00
86104;BME280;76727;51.216;17.394;2024-02-21T00:49:42;100362.50;;;4.86;100.00
86104;BME280;76727;51.216;17.394;2024-02-21T00:52:43;100360.75;;;4.83;100.00
86104;BME280;76727;51.216;17.394;2024-02-21T00:55:44;100346.84;;;4.86;100.00
86104;BME280;76727;51.216;17.394;2024-02-21T00:58:51;100343.34;;;4.93;100.00
86104;BME280;76727;51.216;17.394;2024-02-21T01:01:52;100341.59;;;4.92;100.00
86104;BME280;76727;51.216;17.394;2024-02-21T01:04:54;100334.66;;;5.03;100.00
86104;BME280;76727;51.216;17.394;2024-02-21T01:07:56;100337.25;;;5.08;100.00
86104;BME280;76727;51.216;17.394;2024-02-21T01:10:58;100331.19;;;4.95;100.00
86104;BME280;76727;51.216;17.394;2024-02-21T01:14:00;100335.50;;;4.98;100.00
86104;BME280;76727;51.216;17.394;2024-02-21T01:17:01;100329.41;;;5.00;100.00
86104;BME280;76727;51.216;17.394;2024-02-21T01:20:02;100322.44;;;4.96;100.00
86104;BME280;76727;51.216;17.394;2024-02-21T01:23:04;100327.69;;;4.93;100.00
86104;BME280;76727;51.216;17.394;2024-02-21T01:26:06;100319.84;;;5.02;100.00
86104;BME280;76727;51.216;17.394;2024-02-21T01:29:09;100318.94;;;5.11;100.00
86104;BME280;76727;51.216;17.394;2024-02-21T01:32:10;100311.13;;;5.05;100.00
86104;BME280;76727;51.216;17.394;2024-02-21T01:35:11;100307.66;;;5.09;100.00
86104;BME280;76727;51.216;17.394;2024-02-21T01:38:13;100308.50;;;5.02;100.00
86104;BME280;76727;51.216;17.394;2024-02-21T01:41:13;100309.38;;;5.10;100.00
86104;BME280;76727;51.216;17.394;2024-02-21T01:44:16;100304.16;;;5.13;100.00
86104;BME280;76727;51.216;17.394;2024-02-21T01:47:18;100305.84;;;5.22;100.00
86104;BME280;76727;51.216;17.394;2024-02-21T01:50:19;100297.16;;;5.21;100.00
86104;BME280;76727;51.216;17.394;2024-02-21T01:53:29;100294.53;;;5.26;100.00
86104;BME280;76727;51.216;17.394;2024-02-21T01:56:30;100290.19;;;5.30;100.00
86104;BME280;76727;51.216;17.394;2024-02-21T01:59:34;100291.03;;;5.33;100.00
86104;BME280;76727;51.216;17.394;2024-02-21T02:02:35;100291.00;;;5.39;100.00
86104;BME280;76727;51.216;17.394;2024-02-21T02:05:38;100295.38;;;5.33;100.00
86104;BME280;76727;51.216;17.394;2024-02-21T02:08:40;100282.31;;;5.40;100.00
86104;BME280;76727;51.216;17.394;2024-02-21T02:11:42;100284.94;;;5.36;100.00
86104;BME280;76727;51.216;17.394;2024-02-21T02:14:46;100283.19;;;5.30;100.00
86104;BME280;76727;51.216;17.394;2024-02-21T02:17:57;100283.19;;;5.36;100.00
86104;BME280;76727;51.216;17.394;2024-02-21T02:20:59;100270.97;;;5.45;100.00
86104;BME280;76727;51.216;17.394;2024-02-21T02:24:03;100272.69;;;5.50;100.00
86104;BME280;76727;51.216;17.394;2024-02-21T02:27:04;100266.66;;;5.28;100.00
86104;BME280;76727;51.216;17.394;2024-02-21T02:30:07;100264.03;;;5.33;100.00
86104;BME280;76727;51.216;17.394;2024-02-21T02:33:08;100258.75;;;5.51;100.00
86104;BME280;76727;51.216;17.394;2024-02-21T02:36:09;100259.69;;;5.26;100.00
86104;BME280;76727;51.216;17.394;2024-02-21T02:39:12;100258.81;;;5.23;100.00
86104;BME280;76727;51.216;17.394;2024-02-21T02:42:14;100249.22;;;5.38;100.00
86104;BME280;76727;51.216;17.394;2024-02-21T02:45:15;100244.91;;;5.21;100.00
86104;BME280;76727;51.216;17.394;2024-02-21T02:48:16;100244.91;;;5.21;100.00
86104;BME280;76727;51.216;17.394;2024-02-21T02:51:17;100245.81;;;5.16;100.00
86104;BME280;76727;51.216;17.394;2024-02-21T02:54:21;100241.47;;;5.12;100.00
86104;BME280;76727;51.216;17.394;2024-02-21T02:57:22;100243.19;;;5.16;100.00
86104;BME280;76727;51.216;17.394;2024-02-21T03:00:23;100234.47;;;5.18;100.00
86104;BME280;76727;51.216;17.394;2024-02-21T03:03:24;100236.19;;;5.19;100.00
86104;BME280;76727;51.216;17.394;2024-02-21T03:06:25;100233.59;;;5.24;100.00
86104;BME280;76727;51.216;17.394;2024-02-21T03:09:28;100227.47;;;5.22;100.00
86104;BME280;76727;51.216;17.394;2024-02-21T03:12:29;100241.34;;;5.41;100.00
86104;BME280;76727;51.216;17.394;2024-02-21T03:15:30;100239.63;;;5.37;100.00
86104;BME280;76727;51.216;17.394;2024-02-21T03:18:33;100241.31;;;5.55;100.00
86104;BME280;76727;51.216;17.394;2024-02-21T03:21:35;100233.53;;;5.36;100.00
86104;BME280;76727;51.216;17.394;2024-02-21T03:24:38;100239.59;;;5.38;100.00
86104;BME280;76727;51.216;17.394;2024-02-21T03:27:39;100236.00;;;5.67;100.00
86104;BME280;76727;51.216;17.394;2024-02-21T03:30:41;100236.97;;;5.48;100.00
86104;BME280;76727;51.216;17.394;2024-02-21T03:33:42;100223.06;;;5.43;100.00
86104;BME280;76727;51.216;17.394;2024-02-21T03:36:44;100226.50;;;5.51;100.00
86104;BME280;76727;51.216;17.394;2024-02-21T03:39:46;100222.16;;;5.48;100.00
86104;BME280;76727;51.216;17.394;2024-02-21T03:42:48;100226.53;;;5.38;100.00
86104;BME280;76727;51.216;17.394;2024-02-21T03:45:50;100220.50;;;5.27;100.00
86104;BME280;76727;51.216;17.394;2024-02-21T03:48:52;100218.78;;;5.21;100.00
86104;BME280;76727;51.216;17.394;2024-02-21T03:51:53;100220.47;;;5.38;100.00
86104;BME280;76727;51.216;17.394;2024-02-21T03:54:56;100218.78;;;5.21;100.00
86104;BME280;76727;51.216;17.394;2024-02-21T03:57:58;100214.47;;;5.06;100.00
86104;BME280;76727;51.216;17.394;2024-02-21T04:01:00;100214.47;;;5.11;100.00
86104;BME280;76727;51.216;17.394;2024-02-21T04:04:01;100213.56;;;5.15;100.00
86104;BME280;76727;51.216;17.394;2024-02-21T04:07:03;100218.81;;;5.18;100.00
86104;BME280;76727;51.216;17.394;2024-02-21T04:10:07;100211.81;;;5.20;100.00
86104;BME280;76727;51.216;17.394;2024-02-21T04:13:09;100205.75;;;5.12;100.00
86104;BME280;76727;51.216;17.394;2024-02-21T04:16:11;100205.72;;;5.23;100.00
86104;BME280;76727;51.216;17.394;2024-02-21T04:19:12;100194.41;;;5.21;100.00
86104;BME280;76727;51.216;17.394;2024-02-21T04:22:14;100189.25;;;5.10;100.00
86104;BME280;76727;51.216;17.394;2024-02-21T04:25:17;100196.13;;;5.23;100.00
86104;BME280;76727;51.216;17.394;2024-02-21T04:28:18;100194.41;;;5.16;100.00
86104;BME280;76727;51.216;17.394;2024-02-21T04:31:21;100183.16;;;5.00;100.00
86104;BME280;76727;51.216;17.394;2024-02-21T04:34:23;100179.63;;;5.12;100.00
86104;BME280;76727;51.216;17.394;2024-02-21T04:37:25;100177.94;;;5.00;100.00
86104;BME280;76727;51.216;17.394;2024-02-21T04:40:27;100176.22;;;4.92;100.00
86104;BME280;76727;51.216;17.394;2024-02-21T04:43:28;100173.63;;;4.92;100.00
86104;BME280;76727;51.216;17.394;2024-02-21T04:46:30;100180.53;;;5.06;100.00
86104;BME280;76727;51.216;17.394;2024-02-21T04:49:31;100182.25;;;5.12;100.00
86104;BME280;76727;51.216;17.394;2024-02-21T04:52:33;100177.03;;;5.09;100.00
86104;BME280;76727;51.216;17.394;2024-02-21T04:55:35;100170.16;;;4.93;100.00
86104;BME280;76727;51.216;17.394;2024-02-21T04:58:37;100164.06;;;4.86;100.00
86104;BME280;76727;51.216;17.394;2024-02-21T05:01:39;100164.03;;;4.95;100.00
86104;BME280;76727;51.216;17.394;2024-02-21T05:04:41;100157.13;;;4.83;100.00
86104;BME280;76727;51.216;17.394;2024-02-21T05:07:42;100156.25;;;4.78;100.00
86104;BME280;76727;51.216;17.394;2024-02-21T05:10:45;100153.66;;;4.77;100.00
86104;BME280;76727;51.216;17.394;2024-02-21T05:13:46;100158.88;;;4.74;100.00
86104;BME280;76727;51.216;17.394;2024-02-21T05:16:48;100157.16;;;4.71;100.00
86104;BME280;76727;51.216;17.394;2024-02-21T05:19:51;100152.81;;;4.58;100.00
86104;BME280;76727;51.216;17.394;2024-02-21T05:22:54;100151.97;;;4.54;100.00
86104;BME280;76727;51.216;17.394;2024-02-21T05:25:59;100153.69;;;4.50;100.00
86104;BME280;76727;51.216;17.394;2024-02-21T05:29:00;100153.69;;;4.50;100.00
86104;BME280;76727;51.216;17.394;2024-02-21T05:32:01;100152.81;;;4.53;100.00
86104;BME280;76727;51.216;17.394;2024-02-21T05:35:04;100152.81;;;4.54;100.00
86104;BME280;76727;51.216;17.394;2024-02-21T05:38:05;100151.94;;;4.57;100.00
86104;BME280;76727;51.216;17.394;2024-02-21T05:41:08;100152.78;;;4.73;100.00
86104;BME280;76727;51.216;17.394;2024-02-21T05:44:10;100141.47;;;4.82;100.00
86104;BME280;76727;51.216;17.394;2024-02-21T05:47:11;100141.44;;;4.83;100.00
86104;BME280;76727;51.216;17.394;2024-02-21T05:50:12;100142.31;;;4.82;100.00
86104;BME280;76727;51.216;17.394;2024-02-21T05:53:13;100131.88;;;4.81;100.00
86104;BME280;76727;51.216;17.394;2024-02-21T05:56:17;100135.34;;;4.87;100.00
86104;BME280;76727;51.216;17.394;2024-02-21T05:59:19;100136.19;;;4.88;100.00
86104;BME280;76727;51.216;17.394;2024-02-21T06:02:20;100136.13;;;5.02;100.00
86104;BME280;76727;51.216;17.394;2024-02-21T06:05:21;100135.25;;;5.08;100.00
86104;BME280;76727;51.216;17.394;2024-02-21T06:08:22;100130.06;;;4.98;100.00
86104;BME280;76727;51.216;17.394;2024-02-21T06:11:24;100131.72;;;5.22;100.00
86104;BME280;76727;51.216;17.394;2024-02-21T06:14:26;100132.66;;;5.06;100.00
86104;BME280;76727;51.216;17.394;2024-02-21T06:17:27;100136.13;;;5.08;100.00
86104;BME280;76727;51.216;17.394;2024-02-21T06:20:28;100140.47;;;5.09;100.00
86104;BME280;76727;51.216;17.394;2024-02-21T06:23:31;100136.09;;;5.14;100.00
86104;BME280;76727;51.216;17.394;2024-02-21T06:26:34;100137.81;;;5.21;100.00
86104;BME280;76727;51.216;17.394;2024-02-21T06:29:35;100129.03;;;5.35;100.00
86104;BME280;76727;51.216;17.394;2024-02-21T06:32:38;100128.13;;;5.39;100.00
86104;BME280;76727;51.216;17.394;2024-02-21T06:35:41;100126.34;;;5.46;100.00
86104;BME280;76727;51.216;17.394;2024-02-21T06:38:42;100118.47;;;5.55;100.00
86104;BME280;76727;51.216;17.394;2024-02-21T06:41:45;100127.94;;;5.70;100.00
86104;BME280;76727;51.216;17.394;2024-02-21T06:44:47;100129.72;;;5.65;100.00
86104;BME280;76727;51.216;17.394;2024-02-21T06:47:50;100124.50;;;5.62;100.00
86104;BME280;76727;51.216;17.394;2024-02-21T06:50:54;100126.16;;;5.75;100.00
86104;BME280;76727;51.216;17.394;2024-02-21T06:53:55;100134.91;;;5.69;100.00
86104;BME280;76727;51.216;17.394;2024-02-21T06:56:57;100138.41;;;5.70;100.00
86104;BME280;76727;51.216;17.394;2024-02-21T06:59:59;100133.91;;;5.89;100.00
86104;BME280;76727;51.216;17.394;2024-02-21T07:03:00;100117.28;;;5.95;100.00
86104;BME280;76727;51.216;17.394;2024-02-21T07:06:01;100124.25;;;5.96;100.00
86104;BME280;76727;51.216;17.394;2024-02-21T07:09:02;100113.91;;;5.83;100.00
86104;BME280;76727;51.216;17.394;2024-02-21T07:12:06;100111.25;;;5.82;100.00
86104;BME280;76727;51.216;17.394;2024-02-21T07:15:07;100112.09;;;5.92;100.00
86104;BME280;76727;51.216;17.394;2024-02-21T07:18:08;100113.84;;;5.89;100.00
86104;BME280;76727;51.216;17.394;2024-02-21T07:21:09;100108.59;;;5.94;100.00
86104;BME280;76727;51.216;17.394;2024-02-21T07:24:10;100106.81;;;6.02;100.00
86104;BME280;76727;51.216;17.394;2024-02-21T07:27:15;100105.00;;;6.09;100.00
86104;BME280;76727;51.216;17.394;2024-02-21T07:30:17;100096.25;;;6.13;100.00
86104;BME280;76727;51.216;17.394;2024-02-21T07:33:18;100091.78;;;6.23;100.00
86104;BME280;76727;51.216;17.394;2024-02-21T07:36:28;100106.50;;;6.32;100.00
86104;BME280;76727;51.216;17.394;2024-02-21T07:39:29;100091.66;;;6.35;100.00
86104;BME280;76727;51.216;17.394;2024-02-21T07:42:31;100099.34;;;6.49;100.00
86104;BME280;76727;51.216;17.394;2024-02-21T07:45:32;100097.56;;;6.54;100.00
86104;BME280;76727;51.216;17.394;2024-02-21T07:48:34;100097.41;;;6.67;100.00
86104;BME280;76727;51.216;17.394;2024-02-21T07:51:37;100103.56;;;6.63;100.00
86104;BME280;76727;51.216;17.394;2024-02-21T07:54:39;100101.59;;;6.85;100.00
86104;BME280;76727;51.216;17.394;2024-02-21T07:57:41;100099.00;;;6.80;100.00
86104;BME280;76727;51.216;17.394;2024-02-21T08:00:42;100104.25;;;6.80;100.00
86104;BME280;76727;51.216;17.394;2024-02-21T08:03:45;100098.06;;;6.87;100.00
86104;BME280;76727;51.216;17.394;2024-02-21T08:06:51;100101.72;;;6.74;100.00
86104;BME280;76727;51.216;17.394;2024-02-21T08:09:52;100083.50;;;6.63;100.00
86104;BME280;76727;51.216;17.394;2024-02-21T08:12:55;100096.53;;;6.68;100.00
86104;BME280;76727;51.216;17.394;2024-02-21T08:15:59;100087.72;;;6.73;100.00
86104;BME280;76727;51.216;17.394;2024-02-21T08:19:00;100088.47;;;6.86;100.00
86104;BME280;76727;51.216;17.394;2024-02-21T08:22:01;100083.19;;;6.88;100.00
86104;BME280;76727;51.216;17.394;2024-02-21T08:25:05;100077.75;;;7.03;100.00
86104;BME280;76727;51.216;17.394;2024-02-21T08:28:07;100079.53;;;7.03;100.00
86104;BME280;76727;51.216;17.394;2024-02-21T08:31:08;100082.94;;;7.08;100.00
86104;BME280;76727;51.216;17.394;2024-02-21T08:34:09;100081.31;;;6.98;100.00
86104;BME280;76727;51.216;17.394;2024-02-21T08:37:10;100072.63;;;6.97;100.00
86104;BME280;76727;51.216;17.394;2024-02-21T08:40:11;100069.09;;;6.97;100.00
86104;BME280;76727;51.216;17.394;2024-02-21T08:43:14;100068.31;;;6.90;100.00
86104;BME280;76727;51.216;17.394;2024-02-21T08:46:16;100069.16;;;6.94;100.00
86104;BME280;76727;51.216;17.394;2024-02-21T08:49:18;100068.97;;;7.09;100.00
86104;BME280;76727;51.216;17.394;2024-02-21T08:52:21;100075.88;;;7.12;100.00
86104;BME280;76727;51.216;17.394;2024-02-21T08:55:24;100072.97;;;7.35;100.00
86104;BME280;76727;51.216;17.394;2024-02-21T08:58:28;100058.66;;;7.56;100.00
86104;BME280;76727;51.216;17.394;2024-02-21T09:01:30;100062.94;;;7.62;100.00
86104;BME280;76727;51.216;17.394;2024-02-21T09:04:32;100064.50;;;7.73;100.00
86104;BME280;76727;51.216;17.394;2024-02-21T09:07:34;100068.50;;;7.96;100.00
86104;BME280;76727;51.216;17.394;2024-02-21T09:10:36;100055.81;;;8.20;100.00
86104;BME280;76727;51.216;17.394;2024-02-21T09:13:38;100057.16;;;8.42;100.00
86104;BME280;76727;51.216;17.394;2024-02-21T09:16:39;100051.59;;;8.59;100.00
86104;BME280;76727;51.216;17.394;2024-02-21T09:19:40;100059.50;;;8.59;100.00
86104;BME280;76727;51.216;17.394;2024-02-21T09:22:43;100061.19;;;8.62;100.00
86104;BME280;76727;51.216;17.394;2024-02-21T09:25:46;100051.78;;;8.50;100.00
86104;BME280;76727;51.216;17.394;2024-02-21T09:28:48;100059.00;;;8.39;100.00
86104;BME280;76727;51.216;17.394;2024-02-21T09:31:50;100047.75;;;8.31;100.00
86104;BME280;76727;51.216;17.394;2024-02-21T09:34:51;100053.94;;;8.26;100.00
86104;BME280;76727;51.216;17.394;2024-02-21T09:37:54;100051.13;;;8.37;100.00
86104;BME280;76727;51.216;17.394;2024-02-21T09:40:59;100044.63;;;8.10;100.00
86104;BME280;76727;51.216;17.394;2024-02-21T09:44:03;100048.94;;;8.13;100.00
86104;BME280;76727;51.216;17.394;2024-02-21T09:47:07;100050.63;;;8.17;100.00
86104;BME280;76727;51.216;17.394;2024-02-21T09:50:14;100051.63;;;8.11;100.00
86104;BME280;76727;51.216;17.394;2024-02-21T09:53:15;100047.97;;;8.18;100.00
86104;BME280;76727;51.216;17.394;2024-02-21T09:56:18;100052.44;;;8.13;100.00
86104;BME280;76727;51.216;17.394;2024-02-21T09:59:20;100053.44;;;8.06;100.00
86104;BME280;76727;51.216;17.394;2024-02-21T10:02:22;100041.19;;;8.08;100.00
86104;BME280;76727;51.216;17.394;2024-02-21T10:05:23;100043.88;;;8.03;100.00
86104;BME280;76727;51.216;17.394;2024-02-21T10:08:24;100041.19;;;8.08;100.00
86104;BME280;76727;51.216;17.394;2024-02-21T10:11:25;100049.81;;;8.13;100.00
86104;BME280;76727;51.216;17.394;2024-02-21T10:14:28;100052.75;;;7.96;100.00
86104;BME280;76727;51.216;17.394;2024-02-21T10:17:29;100050.84;;;8.04;100.00
86104;BME280;76727;51.216;17.394;2024-02-21T10:20:32;100037.84;;;8.00;100.00
86104;BME280;76727;51.216;17.394;2024-02-21T10:23:44;100045.75;;;7.95;100.00
86104;BME280;76727;51.216;17.394;2024-02-21T10:26:45;100039.47;;;8.05;100.00
86104;BME280;76727;51.216;17.394;2024-02-21T10:29:50;100035.97;;;8.05;100.00
86104;BME280;76727;51.216;17.394;2024-02-21T10:32:54;100038.81;;;7.92;100.00
86104;BME280;76727;51.216;17.394;2024-02-21T10:36:06;100036.16;;;7.96;100.00
86104;BME280;76727;51.216;17.394;2024-02-21T10:39:08;100034.47;;;7.91;100.00
86104;BME280;76727;51.216;17.394;2024-02-21T10:42:12;100033.41;;;8.02;100.00
86104;BME280;76727;51.216;17.394;2024-02-21T10:45:16;100031.09;;;7.85;100.00
86104;BME280;76727;51.216;17.394;2024-02-21T10:48:24;100033.13;;;7.67;100.00
86104;BME280;76727;51.216;17.394;2024-02-21T10:51:33;100030.63;;;7.59;100.00
86104;BME280;76727;51.216;17.394;2024-02-21T10:54:42;100023.59;;;7.62;100.00
86104;BME280;76727;51.216;17.394;2024-02-21T10:57:45;100013.03;;;7.66;100.00
86104;BME280;76727;51.216;17.394;2024-02-21T11:00:50;100005.41;;;7.52;100.00
86104;BME280;76727;51.216;17.394;2024-02-21T11:03:53;99999.94;;;7.66;100.00
86104;BME280;76727;51.216;17.394;2024-02-21T11:06:55;99987.78;;;7.61;100.00
86104;BME280;76727;51.216;17.394;2024-02-21T11:09:58;99995.34;;;7.78;100.00
86104;BME280;76727;51.216;17.394;2024-02-21T11:13:06;99987.31;;;7.87;100.00
86104;BME280;76727;51.216;17.394;2024-02-21T11:16:21;99989.38;;;7.69;100.00
86104;BME280;76727;51.216;17.394;2024-02-21T11:19:26;99990.34;;;7.64;100.00
86104;BME280;76727;51.216;17.394;2024-02-21T11:22:27;99993.91;;;7.59;100.00
86104;BME280;76727;51.216;17.394;2024-02-21T11:25:29;99984.44;;;7.52;100.00
86104;BME280;76727;51.216;17.394;2024-02-21T11:28:32;99981.53;;;7.68;100.00
86104;BME280;76727;51.216;17.394;2024-02-21T11:31:40;99978.06;;;7.66;100.00
86104;BME280;76727;51.216;17.394;2024-02-21T11:34:53;99972.53;;;7.83;100.00
86104;BME280;76727;51.216;17.394;2024-02-21T11:37:55;99964.72;;;7.80;100.00
86104;BME280;76727;51.216;17.394;2024-02-21T11:40:58;99960.41;;;7.77;100.00
86104;BME280;76727;51.216;17.394;2024-02-21T11:44:00;99955.84;;;7.87;100.00
86104;BME280;76727;51.216;17.394;2024-02-21T11:47:03;99959.38;;;7.84;100.00
86104;BME280;76727;51.216;17.394;2024-02-21T11:50:09;99947.88;;;7.93;100.00
86104;BME280;76727;51.216;17.394;2024-02-21T11:53:11;99947.00;;;7.91;100.00
86104;BME280;76727;51.216;17.394;2024-02-21T11:56:14;99920.63;;;7.99;100.00
86104;BME280;76727;51.216;17.394;2024-02-21T11:59:17;99936.06;;;8.14;100.00
86104;BME280;76727;51.216;17.394;2024-02-21T12:02:20;99939.72;;;8.07;100.00
86104;BME280;76727;51.216;17.394;2024-02-21T12:05:22;99933.44;;;8.14;100.00
86104;BME280;76727;51.216;17.394;2024-02-21T12:08:24;99924.50;;;8.24;100.00
86104;BME280;76727;51.216;17.394;2024-02-21T12:11:26;99904.56;;;8.14;100.00
86104;BME280;76727;51.216;17.394;2024-02-21T12:14:28;99913.69;;;8.38;100.00
86104;BME280;76727;51.216;17.394;2024-02-21T12:17:32;99919.03;;;8.35;100.00
86104;BME280;76727;51.216;17.394;2024-02-21T12:20:35;99903.13;;;8.41;100.00
86104;BME280;76727;51.216;17.394;2024-02-21T12:23:52;99907.31;;;8.52;100.00
86104;BME280;76727;51.216;17.394;2024-02-21T12:26:55;99899.50;;;8.49;100.00
86104;BME280;76727;51.216;17.394;2024-02-21T12:29:57;99888.25;;;8.42;100.00
86104;BME280;76727;51.216;17.394;2024-02-21T12:33:00;99890.22;;;8.31;100.00
86104;BME280;76727;51.216;17.394;2024-02-21T12:36:02;99883.81;;;8.46;100.00
86104;BME280;76727;51.216;17.394;2024-02-21T12:39:04;99880.53;;;8.34;100.00
86104;BME280;76727;51.216;17.394;2024-02-21T12:42:06;99871.06;;;8.68;100.00
86104;BME280;76727;51.216;17.394;2024-02-21T12:45:08;99867.88;;;8.53;100.00
86104;BME280;76727;51.216;17.394;2024-02-21T12:48:10;99865.13;;;8.59;100.00
86104;BME280;76727;51.216;17.394;2024-02-21T12:51:13;99853.31;;;8.38;100.00
86104;BME280;76727;51.216;17.394;2024-02-21T12:54:15;99846.34;;;8.36;100.00
86104;BME280;76727;51.216;17.394;2024-02-21T12:57:18;99853.00;;;8.52;100.00
86104;BME280;76727;51.216;17.394;2024-02-21T13:00:19;99845.13;;;8.54;100.00
86104;BME280;76727;51.216;17.394;2024-02-21T13:03:24;99849.50;;;8.53;100.00
86104;BME280;76727;51.216;17.394;2024-02-21T13:06:27;99836.59;;;8.42;100.00
86104;BME280;76727;51.216;17.394;2024-02-21T13:09:29;99830.75;;;8.30;100.00
86104;BME280;76727;51.216;17.394;2024-02-21T13:12:30;99827.63;;;8.53;100.00
86104;BME280;76727;51.216;17.394;2024-02-21T13:15:33;99818.88;;;8.52;100.00
86104;BME280;76727;51.216;17.394;2024-02-21T13:18:37;99831.03;;;8.58;100.00
86104;BME280;76727;51.216;17.394;2024-02-21T13:21:38;99828.75;;;8.41;100.00
86104;BME280;76727;51.216;17.394;2024-02-21T13:24:42;99829.03;;;8.29;100.00
86104;BME280;76727;51.216;17.394;2024-02-21T13:27:45;99825.50;;;8.30;100.00
86104;BME280;76727;51.216;17.394;2024-02-21T13:30:46;99812.50;;;8.23;100.00
86104;BME280;76727;51.216;17.394;2024-02-21T13:33:51;99813.47;;;8.19;100.00
86104;BME280;76727;51.216;17.394;2024-02-21T13:36:52;99816.22;;;8.13;100.00
86104;BME280;76727;51.216;17.394;2024-02-21T13:39:56;99813.13;;;7.94;100.00
86104;BME280;76727;51.216;17.394;2024-02-21T13:42:56;99801.53;;;8.06;100.00
86104;BME280;76727;51.216;17.394;2024-02-21T13:45:59;99797.66;;;8.22;100.00
86104;BME280;76727;51.216;17.394;2024-02-21T13:49:04;99784.72;;;8.15;100.00
86104;BME280;76727;51.216;17.394;2024-02-21T13:52:07;99789.94;;;8.16;100.00
86104;BME280;76727;51.216;17.394;2024-02-21T13:55:09;99784.44;;;8.27;100.00
86104;BME280;76727;51.216;17.394;2024-02-21T13:58:13;99768.63;;;8.30;100.00
86104;BME280;76727;51.216;17.394;2024-02-21T14:01:16;99774.75;;;8.29;100.00
86104;BME280;76727;51.216;17.394;2024-02-21T14:04:18;99768.78;;;8.22;100.00
86104;BME280;76727;51.216;17.394;2024-02-21T14:07:21;99764.94;;;8.37;100.00
86104;BME280;76727;51.216;17.394;2024-02-21T14:10:22;99750.31;;;8.27;100.00
86104;BME280;76727;51.216;17.394;2024-02-21T14:13:24;99753.31;;;8.49;100.00
86104;BME280;76727;51.216;17.394;2024-02-21T14:16:27;99755.91;;;8.51;100.00
86104;BME280;76727;51.216;17.394;2024-02-21T14:19:32;99754.63;;;8.30;100.00
86104;BME280;76727;51.216;17.394;2024-02-21T14:22:33;99750.88;;;8.40;100.00
86104;BME280;76727;51.216;17.394;2024-02-21T14:25:34;99752.72;;;8.36;100.00
86104;BME280;76727;51.216;17.394;2024-02-21T14:28:36;99743.13;;;8.35;100.00
86104;BME280;76727;51.216;17.394;2024-02-21T14:31:38;99747.13;;;8.52;100.00
86104;BME280;76727;51.216;17.394;2024-02-21T14:34:41;99741.28;;;8.39;100.00
86104;BME280;76727;51.216;17.394;2024-02-21T14:37:43;99741.03;;;8.51;100.00
86104;BME280;76727;51.216;17.394;2024-02-21T14:40:44;99735.75;;;8.51;100.00
86104;BME280;76727;51.216;17.394;2024-02-21T14:43:46;99739.19;;;8.53;100.00
86104;BME280;76727;51.216;17.394;2024-02-21T14:46:48;99733.88;;;8.56;100.00
86104;BME280;76727;51.216;17.394;2024-02-21T14:49:52;99721.78;;;8.49;100.00
86104;BME280;76727;51.216;17.394;2024-02-21T14:52:55;99714.94;;;8.42;100.00
86104;BME280;76727;51.216;17.394;2024-02-21T14:55:57;99722.56;;;8.54;100.00
86104;BME280;76727;51.216;17.394;2024-02-21T14:58:58;99711.09;;;8.57;100.00
86104;BME280;76727;51.216;17.394;2024-02-21T15:02:00;99719.94;;;8.54;100.00
86104;BME280;76727;51.216;17.394;2024-02-21T15:05:05;99718.19;;;8.53;100.00
86104;BME280;76727;51.216;17.394;2024-02-21T15:08:06;99727.19;;;8.43;100.00
86104;BME280;76727;51.216;17.394;2024-02-21T15:11:15;99726.25;;;8.47;100.00
86104;BME280;76727;51.216;17.394;2024-02-21T15:14:17;99719.31;;;8.41;100.00
86104;BME280;76727;51.216;17.394;2024-02-21T15:17:19;99722.63;;;8.51;100.00
86104;BME280;76727;51.216;17.394;2024-02-21T15:20:23;99715.19;;;8.33;100.00
86104;BME280;76727;51.216;17.394;2024-02-21T15:23:29;99714.47;;;8.26;100.00
86104;BME280;76727;51.216;17.394;2024-02-21T15:26:31;99710.31;;;8.17;100.00
86104;BME280;76727;51.216;17.394;2024-02-21T15:29:33;99707.69;;;8.16;100.00
86104;BME280;76727;51.216;17.394;2024-02-21T15:32:35;99704.09;;;8.21;100.00
86104;BME280;76727;51.216;17.394;2024-02-21T15:35:38;99705.94;;;8.16;100.00
86104;BME280;76727;51.216;17.394;2024-02-21T15:38:40;99691.22;;;8.09;100.00
86104;BME280;76727;51.216;17.394;2024-02-21T15:41:42;99693.03;;;8.07;100.00
86104;BME280;76727;51.216;17.394;2024-02-21T15:44:43;99677.50;;;7.98;100.00